createdAt,value
2022-12-28T00:00:30.993Z,1011.42
2022-12-28T00:01:30.078Z,1011.50
2022-12-28T00:02:30.979Z,1011.36
2022-12-28T00:03:30.076Z,1011.44
2022-12-28T00:04:30.319Z,1011.39
2022-12-28T00:05:30.396Z,1011.20
2022-12-28T00:06:30.543Z,1011.22
2022-12-28T00:07:30.706Z,1011.11
2022-12-28T00:08:30.864Z,1011.20
2022-12-28T00:09:31.958Z,1011.14
2022-12-28T00:11:08.122Z,1011.08
2022-12-28T00:11:32.454Z,1011.01
2022-12-28T00:12:32.495Z,1011.04
2022-12-28T00:13:31.747Z,1011.05
2022-12-28T00:14:31.892Z,1010.97
2022-12-28T00:15:32.076Z,1010.91
2022-12-28T00:16:33.239Z,1010.87
2022-12-28T00:17:32.414Z,1010.73
2022-12-28T00:18:32.576Z,1010.89
2022-12-28T00:19:32.753Z,1010.87
2022-12-28T00:20:33.463Z,1010.93
2022-12-28T00:21:33.971Z,1010.83
2022-12-28T00:22:33.198Z,1010.84
2022-12-28T00:23:33.360Z,1010.79
2022-12-28T00:24:34.324Z,1010.84
2022-12-28T00:25:33.692Z,1010.75
2022-12-28T00:26:34.028Z,1010.79
2022-12-28T00:27:34.977Z,1010.72
2022-12-28T00:28:34.962Z,1010.74
2022-12-28T00:29:34.481Z,1010.76
2022-12-28T00:30:34.658Z,1010.76
2022-12-28T00:31:34.891Z,1010.65
2022-12-28T00:32:34.986Z,1010.59
2022-12-28T00:33:35.099Z,1010.73
2022-12-28T00:34:35.222Z,1010.51
2022-12-28T00:35:35.972Z,1010.55
2022-12-28T00:37:08.433Z,1010.53
2022-12-28T00:37:37.990Z,1010.55
2022-12-28T00:38:35.964Z,1010.63
2022-12-28T00:39:37.001Z,1010.63
2022-12-28T00:40:36.262Z,1010.58
2022-12-28T00:41:36.431Z,1010.61
2022-12-28T00:42:36.614Z,1010.56
2022-12-28T00:43:36.764Z,1010.52
2022-12-28T00:44:36.933Z,1010.53
2022-12-28T00:45:38.997Z,1010.43
2022-12-28T00:46:37.964Z,1010.40
2022-12-28T00:47:38.467Z,1010.44
2022-12-28T00:48:37.602Z,1010.52
2022-12-28T00:49:38.477Z,1010.37
2022-12-28T00:50:37.983Z,1010.27
2022-12-28T00:51:39.150Z,1010.31
2022-12-28T00:52:39.829Z,1010.41
2022-12-28T00:53:39.480Z,1010.29
2022-12-28T00:54:39.479Z,1010.35
2022-12-28T00:55:38.876Z,1010.32
2022-12-28T00:56:40.974Z,1010.34
2022-12-28T00:57:40.003Z,1010.33
2022-12-28T00:58:40.475Z,1010.34
2022-12-28T00:59:40.464Z,1010.30
2022-12-28T01:00:39.747Z,1010.16
2022-12-28T01:01:40.136Z,1010.27
2022-12-28T01:02:40.219Z,1010.29
2022-12-28T01:03:40.332Z,1010.20
2022-12-28T01:04:40.528Z,1010.29
2022-12-28T01:05:41.532Z,1010.26
2022-12-28T01:06:40.925Z,1010.10
2022-12-28T01:07:42.009Z,1010.27
2022-12-28T01:08:41.287Z,1010.30
2022-12-28T01:09:41.511Z,1010.15
2022-12-28T01:10:42.471Z,1010.01
2022-12-28T01:11:41.891Z,1010.08
2022-12-28T01:12:42.095Z,1010.11
2022-12-28T01:13:42.273Z,1010.16
2022-12-28T01:14:43.471Z,1010.16
2022-12-28T01:15:42.695Z,1009.93
2022-12-28T01:16:43.515Z,1010.03
2022-12-28T01:17:43.970Z,1009.86
2022-12-28T01:18:43.284Z,1010.02
2022-12-28T01:19:46.223Z,1009.99
2022-12-28T01:20:45.475Z,1010.04
2022-12-28T01:21:43.722Z,1010.03
2022-12-28T01:22:44.928Z,1010.07
2022-12-28T01:23:44.137Z,1009.96
2022-12-28T01:24:44.978Z,1010.04
2022-12-28T01:25:44.975Z,1009.89
2022-12-28T01:26:44.543Z,1009.98
2022-12-28T01:27:45.472Z,1009.91
2022-12-28T01:28:44.885Z,1009.88
2022-12-28T01:29:46.023Z,1009.81
2022-12-28T01:30:45.291Z,1009.89
2022-12-28T01:31:45.598Z,1009.89
2022-12-28T01:33:20.962Z,1009.89
2022-12-28T01:33:45.927Z,1009.86
2022-12-28T01:34:46.092Z,1009.93
2022-12-28T01:35:47.013Z,1009.89
2022-12-28T01:36:46.420Z,1009.79
2022-12-28T01:37:46.608Z,1009.92
2022-12-28T01:38:46.782Z,1009.77
2022-12-28T01:39:46.943Z,1009.80
2022-12-28T01:40:47.092Z,1009.75
2022-12-28T01:41:47.240Z,1009.59
2022-12-28T01:42:47.396Z,1009.69
2022-12-28T01:43:49.009Z,1009.62
2022-12-28T01:44:47.762Z,1009.56
2022-12-28T01:45:48.620Z,1009.59
2022-12-28T01:46:48.076Z,1009.49
2022-12-28T01:47:48.223Z,1009.50
2022-12-28T01:48:48.374Z,1009.51
2022-12-28T01:49:48.523Z,1009.55
2022-12-28T01:50:48.652Z,1009.64
2022-12-28T01:51:48.787Z,1009.57
2022-12-28T01:52:48.923Z,1009.61
2022-12-28T01:53:50.519Z,1009.52
2022-12-28T01:54:49.284Z,1009.48
2022-12-28T01:55:49.451Z,1009.50
2022-12-28T01:56:49.602Z,1009.46
2022-12-28T01:57:49.747Z,1009.47
2022-12-28T01:58:50.549Z,1009.46
2022-12-28T01:59:50.060Z,1009.37
2022-12-28T02:00:50.272Z,1009.42
2022-12-28T02:01:50.447Z,1009.33
2022-12-28T02:02:50.494Z,1009.30
2022-12-28T02:03:50.731Z,1009.36
2022-12-28T02:04:50.902Z,1009.29
2022-12-28T02:05:51.017Z,1009.31
2022-12-28T02:06:52.026Z,1009.21
2022-12-28T02:07:51.407Z,1009.28
2022-12-28T02:08:51.571Z,1009.25
2022-12-28T02:10:41.519Z,1009.31
2022-12-28T02:10:52.934Z,1009.24
2022-12-28T02:11:52.053Z,1009.21
2022-12-28T02:12:52.404Z,1009.32
2022-12-28T02:13:54.018Z,1009.28
2022-12-28T02:14:53.021Z,1009.17
2022-12-28T02:15:52.643Z,1009.24
2022-12-28T02:16:52.833Z,1009.28
2022-12-28T02:17:53.535Z,1009.23
2022-12-28T02:18:53.180Z,1009.12
2022-12-28T02:19:53.347Z,1009.13
2022-12-28T02:20:53.521Z,1008.99
2022-12-28T02:21:54.520Z,1009.11
2022-12-28T02:22:53.864Z,1009.00
2022-12-28T02:23:54.003Z,1009.03
2022-12-28T02:25:12.279Z,1008.97
2022-12-28T02:25:55.379Z,1008.94
2022-12-28T02:26:54.507Z,1008.92
2022-12-28T02:28:30.038Z,1008.94
2022-12-28T02:28:55.421Z,1008.90
2022-12-28T02:29:55.597Z,1008.92
2022-12-28T02:30:55.247Z,1008.88
2022-12-28T02:31:55.403Z,1008.97
2022-12-28T02:32:55.534Z,1008.88
2022-12-28T02:33:55.681Z,1008.73
2022-12-28T02:34:55.843Z,1008.74
2022-12-28T02:35:56.556Z,1008.76
2022-12-28T02:36:56.216Z,1008.82
2022-12-28T02:37:56.382Z,1008.71
2022-12-28T02:38:56.543Z,1008.65
2022-12-28T02:39:56.709Z,1008.65
2022-12-28T02:40:56.844Z,1008.56
2022-12-28T02:41:57.011Z,1008.57
2022-12-28T02:42:57.193Z,1008.47
2022-12-28T02:43:59.000Z,1008.57
2022-12-28T02:44:57.501Z,1008.51
2022-12-28T02:45:57.705Z,1008.61
2022-12-28T02:46:58.428Z,1008.49
2022-12-28T02:47:58.074Z,1008.47
2022-12-28T02:48:58.283Z,1008.29
2022-12-28T02:49:59.066Z,1008.38
2022-12-28T02:50:58.596Z,1008.49
2022-12-28T02:51:58.766Z,1008.30
2022-12-28T02:52:59.557Z,1008.32
2022-12-28T02:54:00.069Z,1008.23
2022-12-28T02:55:33.547Z,1008.12
2022-12-28T02:55:59.403Z,1008.15
2022-12-28T02:56:59.560Z,1008.19
2022-12-28T02:57:59.760Z,1008.19
2022-12-28T02:58:59.953Z,1008.11
2022-12-28T03:00:00.178Z,1008.16
2022-12-28T03:01:01.231Z,1008.13
2022-12-28T03:02:01.233Z,1008.15
2022-12-28T03:03:02.622Z,1008.07
2022-12-28T03:04:01.647Z,1008.16
2022-12-28T03:05:01.075Z,1008.06
2022-12-28T03:06:01.241Z,1008.09
2022-12-28T03:07:01.439Z,1007.99
2022-12-28T03:08:01.582Z,1008.00
2022-12-28T03:09:01.758Z,1007.99
2022-12-28T03:10:02.616Z,1007.90
2022-12-28T03:11:03.149Z,1007.90
2022-12-28T03:12:04.614Z,1007.93
2022-12-28T03:13:02.511Z,1007.90
2022-12-28T03:14:03.643Z,1007.84
2022-12-28T03:15:03.672Z,1007.95
2022-12-28T03:16:03.078Z,1007.90
2022-12-28T03:17:03.263Z,1007.91
2022-12-28T03:18:04.517Z,1007.87
2022-12-28T03:19:05.154Z,1007.71
2022-12-28T03:20:03.926Z,1007.80
2022-12-28T03:21:04.604Z,1007.77
2022-12-28T03:22:04.245Z,1007.80
2022-12-28T03:23:04.425Z,1007.68
2022-12-28T03:24:04.601Z,1007.76
2022-12-28T03:25:04.775Z,1007.65
2022-12-28T03:26:05.623Z,1007.77
2022-12-28T03:27:05.164Z,1007.80
2022-12-28T03:28:05.272Z,1007.75
2022-12-28T03:29:05.446Z,1007.86
2022-12-28T03:30:05.572Z,1007.75
2022-12-28T03:31:05.787Z,1007.74
2022-12-28T03:32:05.906Z,1007.72
2022-12-28T03:33:06.063Z,1007.71
2022-12-28T03:34:06.236Z,1007.63
2022-12-28T03:35:06.398Z,1007.66
2022-12-28T03:36:06.551Z,1007.59
2022-12-28T03:37:06.681Z,1007.65
2022-12-28T03:38:08.619Z,1007.58
2022-12-28T03:39:07.622Z,1007.43
2022-12-28T03:40:07.121Z,1007.24
2022-12-28T03:41:07.678Z,1007.30
2022-12-28T03:42:07.458Z,1007.34
2022-12-28T03:43:07.583Z,1007.42
2022-12-28T03:44:07.737Z,1007.27
2022-12-28T03:45:07.863Z,1007.27
2022-12-28T03:46:08.069Z,1007.17
2022-12-28T03:47:09.152Z,1007.28
2022-12-28T03:48:08.372Z,1007.13
2022-12-28T03:49:08.512Z,1007.12
2022-12-28T03:50:10.623Z,1007.10
2022-12-28T03:51:08.839Z,1007.09
2022-12-28T03:52:08.993Z,1006.99
2022-12-28T03:53:09.127Z,1007.00
2022-12-28T03:54:09.236Z,1006.94
2022-12-28T03:55:09.377Z,1006.86
2022-12-28T03:56:10.121Z,1006.89
2022-12-28T03:57:09.744Z,1006.86
2022-12-28T03:58:10.618Z,1006.92
2022-12-28T03:59:10.086Z,1006.83
2022-12-28T04:00:10.318Z,1006.87
2022-12-28T04:01:11.275Z,1006.91
2022-12-28T04:02:10.797Z,1006.84
2022-12-28T04:03:11.027Z,1006.84
2022-12-28T04:04:11.205Z,1006.78
2022-12-28T04:05:12.119Z,1006.89
2022-12-28T04:06:12.113Z,1006.91
2022-12-28T04:07:12.617Z,1006.74
2022-12-28T04:08:12.618Z,1006.91
2022-12-28T04:09:12.012Z,1006.70
2022-12-28T04:10:12.670Z,1006.80
2022-12-28T04:11:12.289Z,1006.78
2022-12-28T04:12:12.479Z,1006.72
2022-12-28T04:13:13.160Z,1006.75
2022-12-28T04:14:12.827Z,1006.76
2022-12-28T04:15:14.488Z,1006.72
2022-12-28T04:16:14.217Z,1006.73
2022-12-28T04:17:14.486Z,1006.68
2022-12-28T04:18:13.673Z,1006.78
2022-12-28T04:19:14.623Z,1006.83
2022-12-28T04:20:14.011Z,1006.83
2022-12-28T04:21:14.168Z,1006.72
2022-12-28T04:22:14.339Z,1006.67
2022-12-28T04:23:14.491Z,1006.75
2022-12-28T04:24:16.128Z,1006.70
2022-12-28T04:25:14.859Z,1006.66
2022-12-28T04:26:15.016Z,1006.63
2022-12-28T04:27:15.166Z,1006.47
2022-12-28T04:28:15.345Z,1006.38
2022-12-28T04:29:16.164Z,1006.57
2022-12-28T04:30:15.677Z,1006.48
2022-12-28T04:31:15.872Z,1006.55
2022-12-28T04:32:16.622Z,1006.47
2022-12-28T04:33:16.291Z,1006.50
2022-12-28T04:34:16.477Z,1006.49
2022-12-28T04:35:17.623Z,1006.52
2022-12-28T04:36:16.785Z,1006.45
2022-12-28T04:37:17.626Z,1006.46
2022-12-28T04:38:17.157Z,1006.35
2022-12-28T04:39:18.123Z,1006.35
2022-12-28T04:40:18.623Z,1006.33
2022-12-28T04:41:18.624Z,1006.30
2022-12-28T04:42:18.669Z,1006.24
2022-12-28T04:43:18.075Z,1006.31
2022-12-28T04:44:18.261Z,1006.41
2022-12-28T04:45:22.237Z,1006.38
2022-12-28T04:46:19.609Z,1006.25
2022-12-28T04:47:19.774Z,1006.14
2022-12-28T04:48:19.911Z,1006.10
2022-12-28T04:49:19.048Z,1006.20
2022-12-28T04:50:19.232Z,1006.11
2022-12-28T04:51:20.171Z,1006.08
2022-12-28T04:52:19.553Z,1006.14
2022-12-28T04:53:19.732Z,1006.00
2022-12-28T04:54:20.186Z,1005.87
2022-12-28T04:55:33.047Z,1005.94
2022-12-28T04:56:23.129Z,1005.92
2022-12-28T04:57:21.061Z,1005.88
2022-12-28T04:58:21.126Z,1005.85
2022-12-28T04:59:21.637Z,1005.82
2022-12-28T05:00:20.999Z,1005.82
2022-12-28T05:01:21.304Z,1005.87
2022-12-28T05:02:24.224Z,1005.80
2022-12-28T05:03:21.382Z,1005.67
2022-12-28T05:04:21.520Z,1005.67
2022-12-28T05:05:22.627Z,1005.70
2022-12-28T05:06:23.136Z,1005.67
2022-12-28T05:07:21.986Z,1005.74
2022-12-28T05:08:23.134Z,1005.68
2022-12-28T05:09:22.357Z,1005.72
2022-12-28T05:10:22.502Z,1005.64
2022-12-28T05:11:22.645Z,1005.62
2022-12-28T05:12:22.884Z,1005.69
2022-12-28T05:13:23.630Z,1005.67
2022-12-28T05:14:23.126Z,1005.64
2022-12-28T05:15:24.134Z,1005.51
2022-12-28T05:16:23.481Z,1005.63
2022-12-28T05:17:23.534Z,1005.66
2022-12-28T05:18:23.714Z,1005.66
2022-12-28T05:19:24.180Z,1005.56
2022-12-28T05:20:24.048Z,1005.65
2022-12-28T05:21:24.176Z,1005.60
2022-12-28T05:22:24.329Z,1005.50
2022-12-28T05:23:25.177Z,1005.67
2022-12-28T05:24:24.700Z,1005.43
2022-12-28T05:25:24.821Z,1005.56
2022-12-28T05:26:24.958Z,1005.74
2022-12-28T05:27:26.158Z,1005.49
2022-12-28T05:28:25.396Z,1005.60
2022-12-28T05:29:25.537Z,1005.40
2022-12-28T05:30:25.644Z,1005.62
2022-12-28T05:31:25.867Z,1005.45
2022-12-28T05:32:26.642Z,1005.42
2022-12-28T05:33:26.175Z,1005.44
2022-12-28T05:34:26.340Z,1005.48
2022-12-28T05:35:27.134Z,1005.30
2022-12-28T05:36:27.634Z,1005.40
2022-12-28T05:37:26.862Z,1005.36
2022-12-28T05:38:27.003Z,1005.33
2022-12-28T05:39:27.164Z,1005.39
2022-12-28T05:40:27.331Z,1005.34
2022-12-28T05:41:27.497Z,1005.29
2022-12-28T05:42:27.649Z,1005.44
2022-12-28T05:43:27.795Z,1005.27
2022-12-28T05:44:27.924Z,1005.47
2022-12-28T05:45:28.040Z,1005.42
2022-12-28T05:46:28.321Z,1005.28
2022-12-28T05:47:30.140Z,1005.42
2022-12-28T05:48:29.138Z,1005.40
2022-12-28T05:49:28.742Z,1005.28
2022-12-28T05:50:29.636Z,1005.34
2022-12-28T05:51:29.014Z,1005.41
2022-12-28T05:52:30.183Z,1005.31
2022-12-28T05:53:29.346Z,1005.43
2022-12-28T05:54:29.497Z,1005.27
2022-12-28T05:55:30.640Z,1005.30
2022-12-28T05:56:29.914Z,1005.39
2022-12-28T05:57:30.086Z,1005.28
2022-12-28T05:58:30.692Z,1005.39
2022-12-28T05:59:30.373Z,1005.25
2022-12-28T06:00:30.556Z,1005.34
2022-12-28T06:01:31.843Z,1005.28
2022-12-28T06:02:30.945Z,1005.20
2022-12-28T06:03:32.113Z,1005.29
2022-12-28T06:04:31.325Z,1005.20
2022-12-28T06:05:32.182Z,1005.23
2022-12-28T06:06:31.722Z,1005.17
2022-12-28T06:07:31.873Z,1005.10
2022-12-28T06:08:32.044Z,1005.21
2022-12-28T06:09:32.228Z,1005.19
2022-12-28T06:10:32.396Z,1005.17
2022-12-28T06:11:32.573Z,1005.16
2022-12-28T06:12:33.687Z,1005.16
2022-12-28T06:13:33.683Z,1005.17
2022-12-28T06:14:33.103Z,1004.96
2022-12-28T06:15:33.244Z,1005.13
2022-12-28T06:16:33.429Z,1005.13
2022-12-28T06:17:33.636Z,1005.04
2022-12-28T06:18:33.795Z,1005.12
2022-12-28T06:19:33.978Z,1005.08
2022-12-28T06:20:34.146Z,1005.06
2022-12-28T06:21:34.323Z,1005.17
2022-12-28T06:22:34.498Z,1005.11
2022-12-28T06:23:35.647Z,1005.16
2022-12-28T06:24:34.803Z,1005.03
2022-12-28T06:25:34.980Z,1005.10
2022-12-28T06:26:35.205Z,1005.24
2022-12-28T06:27:35.384Z,1005.05
2022-12-28T06:28:36.175Z,1005.01
2022-12-28T06:29:36.528Z,1005.11
2022-12-28T06:30:35.906Z,1005.14
2022-12-28T06:31:36.234Z,1005.05
2022-12-28T06:32:39.156Z,1005.07
2022-12-28T06:33:36.530Z,1004.99
2022-12-28T06:34:36.752Z,1005.03
2022-12-28T06:35:36.981Z,1005.05
2022-12-28T06:36:37.173Z,1005.07
2022-12-28T06:37:37.345Z,1005.17
2022-12-28T06:38:37.501Z,1005.18
2022-12-28T06:39:38.695Z,1005.07
2022-12-28T06:41:11.194Z,1005.09
2022-12-28T06:41:40.073Z,1005.16
2022-12-28T06:42:38.191Z,1005.21
2022-12-28T06:43:38.361Z,1005.12
2022-12-28T06:44:44.380Z,1005.06
2022-12-28T06:45:41.707Z,1005.10
2022-12-28T06:46:41.162Z,1005.10
2022-12-28T06:47:39.134Z,1005.10
2022-12-28T06:48:39.296Z,1005.13
2022-12-28T06:49:39.439Z,1005.09
2022-12-28T06:50:40.574Z,1005.14
2022-12-28T06:51:41.055Z,1004.96
2022-12-28T06:52:41.692Z,1005.05
2022-12-28T06:53:40.167Z,1005.06
2022-12-28T06:54:42.155Z,1005.14
2022-12-28T06:55:40.506Z,1004.98
2022-12-28T06:56:40.645Z,1005.16
2022-12-28T06:57:40.808Z,1005.10
2022-12-28T06:58:40.952Z,1005.00
2022-12-28T06:59:41.109Z,1005.10
2022-12-28T07:00:41.285Z,1005.15
2022-12-28T07:01:41.524Z,1005.12
2022-12-28T07:02:41.698Z,1005.17
2022-12-28T07:03:42.699Z,1005.24
2022-12-28T07:04:41.928Z,1005.12
2022-12-28T07:05:42.049Z,1005.12
2022-12-28T07:06:42.206Z,1005.04
2022-12-28T07:07:43.159Z,1005.04
2022-12-28T07:08:42.527Z,1005.08
2022-12-28T07:09:43.209Z,1005.12
2022-12-28T07:10:42.860Z,1005.07
2022-12-28T07:11:43.040Z,1005.19
2022-12-28T07:12:43.724Z,1005.11
2022-12-28T07:13:44.159Z,1005.05
2022-12-28T07:14:44.660Z,1005.11
2022-12-28T07:15:43.768Z,1005.19
2022-12-28T07:16:43.924Z,1005.07
2022-12-28T07:17:44.105Z,1005.09
2022-12-28T07:18:44.273Z,1005.09
2022-12-28T07:19:45.196Z,1005.10
2022-12-28T07:20:45.165Z,1005.10
2022-12-28T07:21:44.789Z,1005.07
2022-12-28T07:22:44.937Z,1005.08
2022-12-28T07:23:46.160Z,1005.06
2022-12-28T07:24:46.198Z,1004.98
2022-12-28T07:25:45.477Z,1005.05
2022-12-28T07:26:46.167Z,1005.05
2022-12-28T07:27:45.869Z,1005.03
2022-12-28T07:28:46.031Z,1004.92
2022-12-28T07:29:48.170Z,1004.99
2022-12-28T07:30:47.198Z,1005.02
2022-12-28T07:31:47.163Z,1005.00
2022-12-28T07:32:47.677Z,1005.02
2022-12-28T07:33:48.164Z,1005.03
2022-12-28T07:34:47.193Z,1004.99
2022-12-28T07:35:47.395Z,1004.97
2022-12-28T07:36:48.163Z,1004.97
2022-12-28T07:37:47.735Z,1005.08
2022-12-28T07:38:47.932Z,1004.92
2022-12-28T07:39:48.158Z,1005.05
2022-12-28T07:40:48.378Z,1005.02
2022-12-28T07:41:48.578Z,1005.03
2022-12-28T07:42:49.664Z,1005.00
2022-12-28T07:43:48.994Z,1004.97
2022-12-28T07:44:49.510Z,1004.96
2022-12-28T07:45:50.383Z,1004.99
2022-12-28T07:46:50.165Z,1004.96
2022-12-28T07:47:50.715Z,1004.96
2022-12-28T07:48:49.873Z,1004.95
2022-12-28T07:49:50.072Z,1004.88
2022-12-28T07:50:52.029Z,1004.94
2022-12-28T07:51:51.165Z,1004.85
2022-12-28T07:52:51.205Z,1004.83
2022-12-28T07:53:50.766Z,1004.77
2022-12-28T07:54:50.966Z,1004.78
2022-12-28T07:55:52.171Z,1004.89
2022-12-28T07:56:51.316Z,1004.76
2022-12-28T07:57:51.492Z,1004.84
2022-12-28T07:58:51.704Z,1004.75
2022-12-28T07:59:51.881Z,1004.80
2022-12-28T08:00:52.675Z,1004.75
2022-12-28T08:01:53.335Z,1004.80
2022-12-28T08:02:53.170Z,1004.70
2022-12-28T08:03:52.610Z,1004.67
2022-12-28T08:04:52.698Z,1004.70
2022-12-28T08:05:53.710Z,1004.61
2022-12-28T08:06:53.076Z,1004.67
2022-12-28T08:07:57.187Z,1004.66
2022-12-28T08:08:55.375Z,1004.70
2022-12-28T08:09:53.599Z,1004.70
2022-12-28T08:10:53.753Z,1004.73
2022-12-28T08:11:54.675Z,1004.72
2022-12-28T08:12:54.177Z,1004.73
2022-12-28T08:13:54.359Z,1004.74
2022-12-28T08:14:54.546Z,1004.62
2022-12-28T08:15:54.736Z,1004.65
2022-12-28T08:16:54.913Z,1004.49
2022-12-28T08:17:55.669Z,1004.74
2022-12-28T08:18:55.257Z,1004.69
2022-12-28T08:19:56.205Z,1004.60
2022-12-28T08:20:55.714Z,1004.65
2022-12-28T08:21:55.855Z,1004.59
2022-12-28T08:22:56.015Z,1004.58
2022-12-28T08:23:56.230Z,1004.57
2022-12-28T08:24:56.365Z,1004.63
2022-12-28T08:25:56.529Z,1004.67
2022-12-28T08:26:56.681Z,1004.46
2022-12-28T08:27:56.833Z,1004.54
2022-12-28T08:28:56.955Z,1004.53
2022-12-28T08:29:57.670Z,1004.46
2022-12-28T08:30:57.340Z,1004.47
2022-12-28T08:31:58.215Z,1004.58
2022-12-28T08:32:57.722Z,1004.61
2022-12-28T08:33:57.839Z,1004.55
2022-12-28T08:34:58.002Z,1004.40
2022-12-28T08:35:58.101Z,1004.48
2022-12-28T08:36:58.729Z,1004.46
2022-12-28T08:37:58.371Z,1004.50
2022-12-28T08:38:58.491Z,1004.53
2022-12-28T08:39:58.657Z,1004.49
2022-12-28T08:40:58.805Z,1004.49
2022-12-28T08:41:58.945Z,1004.46
2022-12-28T08:42:59.111Z,1004.48
2022-12-28T08:43:59.278Z,1004.53
2022-12-28T08:44:59.430Z,1004.49
2022-12-28T08:45:59.681Z,1004.41
2022-12-28T08:46:59.878Z,1004.42
2022-12-28T08:48:00.673Z,1004.35
2022-12-28T08:49:00.094Z,1004.48
2022-12-28T08:50:00.278Z,1004.44
2022-12-28T08:51:01.176Z,1004.44
2022-12-28T08:52:00.675Z,1004.21
2022-12-28T08:53:00.836Z,1004.31
2022-12-28T08:54:01.008Z,1004.27
2022-12-28T08:55:01.236Z,1004.40
2022-12-28T08:56:06.368Z,1004.24
2022-12-28T08:57:03.184Z,1004.25
2022-12-28T08:58:01.689Z,1004.15
2022-12-28T08:59:02.572Z,1004.20
2022-12-28T09:00:02.135Z,1004.19
2022-12-28T09:01:02.278Z,1004.27
2022-12-28T09:02:03.350Z,1004.19
2022-12-28T09:03:02.737Z,1004.20
2022-12-28T09:04:03.716Z,1004.18
2022-12-28T09:05:02.981Z,1004.26
2022-12-28T09:06:04.044Z,1004.23
2022-12-28T09:07:03.311Z,1004.22
2022-12-28T09:08:05.183Z,1004.13
2022-12-28T09:09:06.729Z,1004.12
2022-12-28T09:10:04.871Z,1004.19
2022-12-28T09:11:04.725Z,1004.11
2022-12-28T09:12:05.692Z,1004.17
2022-12-28T09:13:04.749Z,1004.18
2022-12-28T09:14:04.539Z,1004.20
2022-12-28T09:15:05.690Z,1004.23
2022-12-28T09:16:04.848Z,1004.13
2022-12-28T09:17:05.062Z,1004.27
2022-12-28T09:18:05.283Z,1004.28
2022-12-28T09:19:05.504Z,1004.12
2022-12-28T09:20:06.179Z,1004.26
2022-12-28T09:21:06.693Z,1004.21
2022-12-28T09:22:06.685Z,1004.23
2022-12-28T09:23:06.130Z,1004.26
2022-12-28T09:24:06.353Z,1004.32
2022-12-28T09:25:06.557Z,1004.21
2022-12-28T09:26:07.751Z,1004.20
2022-12-28T09:27:06.962Z,1004.05
2022-12-28T09:28:08.198Z,1004.20
2022-12-28T09:29:08.186Z,1004.18
2022-12-28T09:30:07.585Z,1004.24
2022-12-28T09:31:08.744Z,1004.24
2022-12-28T09:32:07.966Z,1004.21
2022-12-28T09:33:09.172Z,1004.29
2022-12-28T09:34:35.735Z,1004.07
2022-12-28T09:35:10.469Z,1004.11
2022-12-28T09:36:09.212Z,1004.05
2022-12-28T09:37:08.843Z,1004.22
2022-12-28T09:38:08.952Z,1004.09
2022-12-28T09:39:09.158Z,1004.07
2022-12-28T09:40:11.204Z,1004.16
2022-12-28T09:41:09.509Z,1004.02
2022-12-28T09:42:09.589Z,1004.07
2022-12-28T09:43:09.799Z,1004.04
2022-12-28T09:44:09.990Z,1004.00
2022-12-28T09:45:10.194Z,1003.99
2022-12-28T09:46:10.479Z,1003.97
2022-12-28T09:47:10.580Z,1003.93
2022-12-28T09:48:12.202Z,1003.94
2022-12-28T09:49:10.990Z,1003.85
2022-12-28T09:50:11.184Z,1003.83
2022-12-28T09:51:12.195Z,1003.84
2022-12-28T09:52:11.507Z,1003.89
2022-12-28T09:53:11.749Z,1003.77
2022-12-28T09:54:12.926Z,1003.75
2022-12-28T09:55:12.063Z,1003.76
2022-12-28T09:56:12.237Z,1003.71
2022-12-28T09:57:12.424Z,1003.69
2022-12-28T09:58:12.652Z,1003.69
2022-12-28T09:59:13.729Z,1003.76
2022-12-28T10:00:13.036Z,1003.74
2022-12-28T10:01:13.312Z,1003.80
2022-12-28T10:02:13.429Z,1003.78
2022-12-28T10:03:13.561Z,1003.74
2022-12-28T10:04:13.684Z,1003.74
2022-12-28T10:05:14.694Z,1003.78
2022-12-28T10:06:14.115Z,1003.89
2022-12-28T10:07:14.282Z,1003.77
2022-12-28T10:08:15.196Z,1003.75
2022-12-28T10:09:14.637Z,1003.67
2022-12-28T10:10:15.696Z,1003.69
2022-12-28T10:11:15.694Z,1003.70
2022-12-28T10:12:15.118Z,1003.66
2022-12-28T10:13:45.392Z,1003.59
2022-12-28T10:14:17.424Z,1003.61
2022-12-28T10:15:15.571Z,1003.58
2022-12-28T10:16:17.773Z,1003.57
2022-12-28T10:17:17.707Z,1003.46
2022-12-28T10:18:16.136Z,1003.43
2022-12-28T10:19:16.295Z,1003.45
2022-12-28T10:20:16.452Z,1003.38
2022-12-28T10:21:17.200Z,1003.38
2022-12-28T10:22:16.848Z,1003.44
2022-12-28T10:23:17.249Z,1003.41
2022-12-28T10:24:33.153Z,1003.43
2022-12-28T10:25:19.418Z,1003.33
2022-12-28T10:26:18.201Z,1003.32
2022-12-28T10:27:18.564Z,1003.36
2022-12-28T10:28:18.739Z,1003.42
2022-12-28T10:29:17.975Z,1003.37
2022-12-28T10:30:18.179Z,1003.41
2022-12-28T10:31:18.294Z,1003.40
2022-12-28T10:32:18.447Z,1003.43
2022-12-28T10:33:18.749Z,1003.40
2022-12-28T10:34:18.814Z,1003.32
2022-12-28T10:35:19.701Z,1003.33
2022-12-28T10:36:19.248Z,1003.37
2022-12-28T10:37:20.240Z,1003.36
2022-12-28T10:38:19.674Z,1003.35
2022-12-28T10:39:19.840Z,1003.35
2022-12-28T10:40:20.047Z,1003.31
2022-12-28T10:41:21.199Z,1003.36
2022-12-28T10:42:21.204Z,1003.27
2022-12-28T10:43:23.198Z,1003.26
2022-12-28T10:45:23.365Z,1003.29
2022-12-28T10:46:21.218Z,1003.18
2022-12-28T10:47:22.237Z,1003.19
2022-12-28T10:48:22.071Z,1003.13
2022-12-28T10:49:22.704Z,1003.23
2022-12-28T10:50:37.020Z,1003.11
2022-12-28T10:51:24.253Z,1003.13
2022-12-28T10:52:23.205Z,1003.15
2022-12-28T10:53:22.485Z,1003.11
2022-12-28T10:54:27.879Z,1002.99
2022-12-28T10:55:24.256Z,1003.08
2022-12-28T10:56:22.902Z,1003.04
2022-12-28T10:57:24.215Z,1003.05
2022-12-28T10:58:33.445Z,1003.04
2022-12-28T10:59:25.381Z,1003.05
2022-12-28T11:00:23.550Z,1003.00
2022-12-28T11:01:25.355Z,1003.04
2022-12-28T11:02:24.115Z,1002.97
2022-12-28T11:03:25.160Z,1002.94
2022-12-28T11:04:24.255Z,1002.87
2022-12-28T11:05:26.204Z,1002.90
2022-12-28T11:06:27.611Z,1002.93
2022-12-28T11:07:25.721Z,1002.92
2022-12-28T11:08:25.714Z,1002.85
2022-12-28T11:09:25.139Z,1002.83
2022-12-28T11:10:26.204Z,1002.82
2022-12-28T11:11:25.771Z,1002.86
2022-12-28T11:12:25.737Z,1002.73
2022-12-28T11:13:26.750Z,1002.73
2022-12-28T11:14:26.017Z,1002.68
2022-12-28T11:15:26.249Z,1002.66
2022-12-28T11:16:26.455Z,1002.60
2022-12-28T11:17:27.642Z,1002.53
2022-12-28T11:18:30.759Z,1002.59
2022-12-28T11:19:27.960Z,1002.63
2022-12-28T11:20:27.708Z,1002.58
2022-12-28T11:21:27.255Z,1002.60
2022-12-28T11:22:27.431Z,1002.60
2022-12-28T11:23:28.575Z,1002.60
2022-12-28T11:24:27.840Z,1002.56
2022-12-28T11:25:27.996Z,1002.61
2022-12-28T11:26:28.192Z,1002.57
2022-12-28T11:27:28.337Z,1002.59
2022-12-28T11:28:28.515Z,1002.50
2022-12-28T11:29:28.668Z,1002.53
2022-12-28T11:30:28.826Z,1002.51
2022-12-28T11:31:29.059Z,1002.47
2022-12-28T11:32:29.244Z,1002.52
2022-12-28T11:33:31.209Z,1002.51
2022-12-28T11:34:30.259Z,1002.47
2022-12-28T11:35:31.093Z,1002.50
2022-12-28T11:36:29.997Z,1002.54
2022-12-28T11:37:30.753Z,1002.46
2022-12-28T11:38:32.078Z,1002.45
2022-12-28T11:39:30.572Z,1002.42
2022-12-28T11:40:30.691Z,1002.45
2022-12-28T11:41:33.958Z,1002.45
2022-12-28T11:42:40.823Z,1002.42
2022-12-28T11:43:33.241Z,1002.48
2022-12-28T11:44:32.256Z,1002.38
2022-12-28T11:45:31.596Z,1002.36
2022-12-28T11:46:31.794Z,1002.26
2022-12-28T11:47:31.966Z,1002.34
2022-12-28T11:48:32.753Z,1002.37
2022-12-28T11:49:33.217Z,1002.36
2022-12-28T11:50:33.228Z,1002.25
2022-12-28T11:51:32.732Z,1002.26
2022-12-28T11:52:33.709Z,1002.18
2022-12-28T11:53:33.086Z,1002.24
2022-12-28T11:54:33.760Z,1002.09
2022-12-28T11:55:34.228Z,1002.20
2022-12-28T11:56:33.597Z,1002.13
2022-12-28T11:57:33.768Z,1002.05
2022-12-28T11:58:33.926Z,1002.12
2022-12-28T11:59:34.763Z,1002.05
2022-12-28T12:00:34.764Z,1002.07
2022-12-28T12:01:35.452Z,1002.16
2022-12-28T12:02:34.585Z,1002.08
2022-12-28T12:03:34.795Z,1002.05
2022-12-28T12:04:34.911Z,1002.10
2022-12-28T12:05:35.771Z,1001.99
2022-12-28T12:06:39.831Z,1001.99
2022-12-28T12:07:36.427Z,1001.97
2022-12-28T12:08:35.541Z,1001.92